UAL8962 KDCA-KEWR
Flight info
| Callsign | UAL8962 |
|---|---|
| Flight time | 0h 39m |
| Altitude | 21000 |
| Route | SOOKI6 SWANN PHLBO4 |
| Aircraft | A21N/M-SDE3FGHIRWY/LB1 |
Departure
| Time | 2026-04-30 03:51 |
|---|---|
| Airport | Ronald Reagan Washington National Airport (KDCA) |
Arrival
| Time | 2026-04-30 04:30 |
|---|---|
| Airport | Newark Liberty International Airport (KEWR) |
| Time | Latitude | Longitude | Altitude | Speed | Heading |
|---|---|---|---|---|---|
| 2026-04-30 03:11 | 38.85357 | -77.04150 | 23 ft | 0 kts | 348° |
| 2026-04-30 03:42 | 38.85346 | -77.04147 | 23 ft | 2 kts | 346° |
| 2026-04-30 03:42 | 38.85331 | -77.04147 | 23 ft | 2 kts | 13° |
| 2026-04-30 03:42 | 38.85317 | -77.04153 | 23 ft | 2 kts | 31° |
| 2026-04-30 03:43 | 38.85305 | -77.04166 | 23 ft | 2 kts | 48° |
| 2026-04-30 03:43 | 38.85296 | -77.04182 | 23 ft | 1 kts | 67° |
| 2026-04-30 03:43 | 38.85294 | -77.04189 | 23 ft | 1 kts | 74° |
| 2026-04-30 03:43 | 38.85293 | -77.04193 | 23 ft | 0 kts | 72° |
| 2026-04-30 03:45 | 38.85294 | -77.04192 | 23 ft | 0 kts | 72° |
| 2026-04-30 03:46 | 38.85305 | -77.04148 | 23 ft | 9 kts | 71° |
| 2026-04-30 03:46 | 38.85328 | -77.04061 | 23 ft | 10 kts | 72° |
| 2026-04-30 03:46 | 38.85345 | -77.03964 | 23 ft | 11 kts | 72° |
| 2026-04-30 03:46 | 38.85414 | -77.03943 | 23 ft | 11 kts | 354° |
| 2026-04-30 03:47 | 38.85499 | -77.03952 | 23 ft | 12 kts | 356° |
| 2026-04-30 03:47 | 38.85594 | -77.03960 | 23 ft | 14 kts | 356° |
| 2026-04-30 03:47 | 38.85703 | -77.03971 | 23 ft | 16 kts | 355° |
| 2026-04-30 03:47 | 38.85815 | -77.03983 | 23 ft | 16 kts | 355° |
| 2026-04-30 03:48 | 38.85924 | -77.03987 | 23 ft | 14 kts | 10° |
| 2026-04-30 03:48 | 38.85989 | -77.03964 | 23 ft | 0 kts | 20° |
| 2026-04-30 03:49 | 38.85998 | -77.03960 | 23 ft | 5 kts | 19° |
| 2026-04-30 03:49 | 38.86063 | -77.03930 | 23 ft | 12 kts | 30° |
| 2026-04-30 03:49 | 38.86051 | -77.03865 | 23 ft | 9 kts | 165° |
| 2026-04-30 03:50 | 38.85979 | -77.03859 | 23 ft | 10 kts | 176° |
| 2026-04-30 03:50 | 38.85798 | -77.03839 | 23 ft | 60 kts | 175° |
| 2026-04-30 03:50 | 38.85097 | -77.03768 | 23 ft | 138 kts | 175° |
| 2026-04-30 03:50 | 38.83962 | -77.03649 | 322 ft | 174 kts | 176° |
| 2026-04-30 03:51 | 38.82789 | -77.03484 | 1170 ft | 177 kts | 171° |
| 2026-04-30 03:51 | 38.81591 | -77.03127 | 2033 ft | 176 kts | 171° |
| 2026-04-30 03:51 | 38.80401 | -77.02735 | 2581 ft | 183 kts | 171° |
| 2026-04-30 03:51 | 38.79127 | -77.02330 | 3043 ft | 196 kts | 171° |
| 2026-04-30 03:52 | 38.77753 | -77.01971 | 3526 ft | 206 kts | 176° |
| 2026-04-30 03:52 | 38.76303 | -77.01605 | 4042 ft | 220 kts | 167° |
| 2026-04-30 03:52 | 38.74979 | -77.00516 | 4500 ft | 242 kts | 136° |
| 2026-04-30 03:52 | 38.74177 | -76.98510 | 4772 ft | 269 kts | 99° |
| 2026-04-30 03:53 | 38.74307 | -76.96062 | 5208 ft | 284 kts | 71° |
| 2026-04-30 03:53 | 38.75099 | -76.93704 | 5761 ft | 294 kts | 59° |
| 2026-04-30 03:53 | 38.76072 | -76.91403 | 6579 ft | 295 kts | 52° |
| 2026-04-30 03:53 | 38.77396 | -76.89475 | 7414 ft | 289 kts | 34° |
| 2026-04-30 03:54 | 38.79080 | -76.88095 | 8087 ft | 290 kts | 22° |
| 2026-04-30 03:54 | 38.80901 | -76.86919 | 8769 ft | 296 kts | 22° |
| 2026-04-30 03:54 | 38.82712 | -76.85707 | 9516 ft | 298 kts | 23° |
| 2026-04-30 03:54 | 38.84525 | -76.84354 | 10173 ft | 305 kts | 26° |
| 2026-04-30 03:55 | 38.86337 | -76.82811 | 10579 ft | 322 kts | 31° |
| 2026-04-30 03:55 | 38.88130 | -76.80984 | 10889 ft | 341 kts | 36° |
| 2026-04-30 03:55 | 38.89957 | -76.78917 | 11189 ft | 359 kts | 37° |
| 2026-04-30 03:55 | 38.91846 | -76.76723 | 11479 ft | 375 kts | 38° |
| 2026-04-30 03:56 | 38.93822 | -76.74422 | 11782 ft | 389 kts | 38° |
| 2026-04-30 03:56 | 38.95840 | -76.72068 | 12289 ft | 396 kts | 38° |
| 2026-04-30 03:56 | 38.97906 | -76.69660 | 12887 ft | 400 kts | 38° |
| 2026-04-30 03:56 | 38.99966 | -76.67265 | 13378 ft | 407 kts | 38° |
| 2026-04-30 03:57 | 39.02059 | -76.64728 | 13861 ft | 415 kts | 40° |
| 2026-04-30 03:57 | 39.04103 | -76.62138 | 14424 ft | 419 kts | 40° |
| 2026-04-30 03:57 | 39.06168 | -76.59489 | 14997 ft | 421 kts | 40° |
| 2026-04-30 03:57 | 39.08261 | -76.56807 | 15547 ft | 425 kts | 40° |
| 2026-04-30 03:58 | 39.10312 | -76.54021 | 16065 ft | 431 kts | 48° |
| 2026-04-30 03:58 | 39.11817 | -76.50700 | 16540 ft | 440 kts | 65° |
| 2026-04-30 03:58 | 39.12605 | -76.46865 | 17049 ft | 444 kts | 80° |
| 2026-04-30 03:58 | 39.13027 | -76.42921 | 17554 ft | 447 kts | 82° |
| 2026-04-30 03:59 | 39.13402 | -76.38957 | 18022 ft | 450 kts | 82° |
| 2026-04-30 03:59 | 39.13805 | -76.34925 | 18578 ft | 451 kts | 82° |
| 2026-04-30 03:59 | 39.14231 | -76.30943 | 19059 ft | 453 kts | 82° |
| 2026-04-30 03:59 | 39.14711 | -76.26901 | 19479 ft | 456 kts | 78° |
| 2026-04-30 04:00 | 39.15750 | -76.23097 | 19842 ft | 456 kts | 60° |
| 2026-04-30 04:00 | 39.17580 | -76.19796 | 20278 ft | 450 kts | 43° |
| 2026-04-30 04:00 | 39.19865 | -76.17039 | 20690 ft | 449 kts | 38° |
| 2026-04-30 04:00 | 39.22192 | -76.14401 | 20792 ft | 450 kts | 37° |
| 2026-04-30 04:01 | 39.24569 | -76.11711 | 20792 ft | 449 kts | 37° |
| 2026-04-30 04:01 | 39.26887 | -76.09060 | 20798 ft | 449 kts | 38° |
| 2026-04-30 04:01 | 39.29227 | -76.06351 | 20799 ft | 449 kts | 38° |
| 2026-04-30 04:01 | 39.31551 | -76.03641 | 20797 ft | 450 kts | 38° |
| 2026-04-30 04:02 | 39.33857 | -76.00937 | 20795 ft | 449 kts | 38° |
| 2026-04-30 04:02 | 39.36147 | -75.98243 | 20799 ft | 449 kts | 38° |
| 2026-04-30 04:02 | 39.38487 | -75.95493 | 20803 ft | 450 kts | 38° |
| 2026-04-30 04:02 | 39.40788 | -75.92781 | 20800 ft | 450 kts | 39° |
| 2026-04-30 04:03 | 39.43092 | -75.90058 | 20800 ft | 449 kts | 38° |
| 2026-04-30 04:03 | 39.45428 | -75.87298 | 20804 ft | 449 kts | 39° |
| 2026-04-30 04:03 | 39.47727 | -75.84579 | 20804 ft | 450 kts | 39° |
| 2026-04-30 04:03 | 39.50015 | -75.81873 | 20810 ft | 451 kts | 39° |
| 2026-04-30 04:04 | 39.52342 | -75.79114 | 20807 ft | 450 kts | 39° |
| 2026-04-30 04:04 | 39.54642 | -75.76384 | 20811 ft | 450 kts | 39° |
| 2026-04-30 04:04 | 39.56955 | -75.73635 | 20812 ft | 450 kts | 39° |
| 2026-04-30 04:04 | 39.59262 | -75.70895 | 20822 ft | 450 kts | 39° |
| 2026-04-30 04:05 | 39.61576 | -75.68142 | 20826 ft | 450 kts | 39° |
| 2026-04-30 04:05 | 39.63908 | -75.65366 | 20832 ft | 450 kts | 39° |
| 2026-04-30 04:05 | 39.66208 | -75.62624 | 20832 ft | 450 kts | 39° |
| 2026-04-30 04:05 | 39.68507 | -75.59877 | 20834 ft | 450 kts | 39° |
| 2026-04-30 04:06 | 39.70825 | -75.57093 | 20827 ft | 450 kts | 39° |
| 2026-04-30 04:06 | 39.73120 | -75.54329 | 20511 ft | 449 kts | 40° |
| 2026-04-30 04:06 | 39.75401 | -75.51581 | 19635 ft | 454 kts | 39° |
| 2026-04-30 04:06 | 39.77721 | -75.48780 | 18798 ft | 457 kts | 39° |
| 2026-04-30 04:07 | 39.80032 | -75.45990 | 18173 ft | 454 kts | 40° |
| 2026-04-30 04:07 | 39.82362 | -75.43175 | 17573 ft | 451 kts | 40° |
| 2026-04-30 04:07 | 39.84633 | -75.40428 | 17016 ft | 446 kts | 40° |
| 2026-04-30 04:08 | 39.89119 | -75.34998 | 15920 ft | 438 kts | 40° |
| 2026-04-30 04:08 | 39.91357 | -75.32285 | 15369 ft | 433 kts | 41° |
| 2026-04-30 04:08 | 39.93550 | -75.29620 | 14824 ft | 429 kts | 41° |
| 2026-04-30 04:08 | 39.95715 | -75.26992 | 14284 ft | 426 kts | 42° |
| 2026-04-30 04:09 | 39.97858 | -75.24387 | 13746 ft | 422 kts | 42° |
| 2026-04-30 04:09 | 39.99981 | -75.21802 | 13214 ft | 419 kts | 42° |
| 2026-04-30 04:09 | 40.02119 | -75.19196 | 12678 ft | 415 kts | 42° |
| 2026-04-30 04:09 | 40.04212 | -75.16644 | 12149 ft | 411 kts | 42° |
| 2026-04-30 04:10 | 40.06294 | -75.14105 | 11626 ft | 407 kts | 42° |
| 2026-04-30 04:10 | 40.08338 | -75.11610 | 11269 ft | 399 kts | 43° |
| 2026-04-30 04:10 | 40.10328 | -75.09178 | 11068 ft | 387 kts | 43° |
| 2026-04-30 04:10 | 40.12286 | -75.06780 | 10948 ft | 379 kts | 43° |
| 2026-04-30 04:11 | 40.14209 | -75.04426 | 10733 ft | 378 kts | 43° |
| 2026-04-30 04:11 | 40.16139 | -75.02060 | 10394 ft | 370 kts | 43° |
| 2026-04-30 04:11 | 40.17988 | -74.99792 | 10085 ft | 362 kts | 43° |
| 2026-04-30 04:11 | 40.19814 | -74.97549 | 9863 ft | 351 kts | 43° |
| 2026-04-30 04:12 | 40.21572 | -74.95388 | 9579 ft | 344 kts | 43° |
| 2026-04-30 04:12 | 40.23294 | -74.93271 | 9215 ft | 335 kts | 43° |
| 2026-04-30 04:12 | 40.24956 | -74.91225 | 8768 ft | 326 kts | 44° |
| 2026-04-30 04:12 | 40.26513 | -74.89140 | 8357 ft | 315 kts | 46° |
| 2026-04-30 04:13 | 40.27999 | -74.87058 | 8053 ft | 307 kts | 47° |
| 2026-04-30 04:13 | 40.29431 | -74.85033 | 7822 ft | 300 kts | 47° |
| 2026-04-30 04:13 | 40.30853 | -74.83030 | 7847 ft | 303 kts | 47° |
| 2026-04-30 04:13 | 40.32291 | -74.81006 | 7871 ft | 303 kts | 47° |
| 2026-04-30 04:14 | 40.33720 | -74.78996 | 7888 ft | 303 kts | 47° |
| 2026-04-30 04:14 | 40.35178 | -74.76947 | 7912 ft | 304 kts | 47° |
| 2026-04-30 04:14 | 40.36624 | -74.74914 | 7917 ft | 305 kts | 47° |
| 2026-04-30 04:14 | 40.38057 | -74.72894 | 7922 ft | 304 kts | 47° |
| 2026-04-30 04:15 | 40.39508 | -74.70847 | 7924 ft | 305 kts | 47° |
| 2026-04-30 04:15 | 40.40947 | -74.68816 | 7925 ft | 304 kts | 46° |
| 2026-04-30 04:15 | 40.42552 | -74.67071 | 7910 ft | 303 kts | 26° |
| 2026-04-30 04:15 | 40.44535 | -74.66174 | 7930 ft | 300 kts | 9° |
| 2026-04-30 04:16 | 40.46596 | -74.65647 | 7924 ft | 299 kts | 7° |
| 2026-04-30 04:16 | 40.48643 | -74.65162 | 7924 ft | 300 kts | 7° |
| 2026-04-30 04:16 | 40.50696 | -74.64661 | 7927 ft | 300 kts | 8° |
| 2026-04-30 04:16 | 40.52748 | -74.64139 | 7928 ft | 301 kts | 8° |
| 2026-04-30 04:17 | 40.54802 | -74.63599 | 7934 ft | 300 kts | 8° |
| 2026-04-30 04:17 | 40.56843 | -74.63049 | 7936 ft | 300 kts | 10° |
| 2026-04-30 04:17 | 40.58759 | -74.62000 | 7923 ft | 305 kts | 33° |
| 2026-04-30 04:17 | 40.60418 | -74.60236 | 7932 ft | 305 kts | 41° |
| 2026-04-30 04:18 | 40.61986 | -74.58353 | 7935 ft | 305 kts | 42° |
| 2026-04-30 04:18 | 40.63535 | -74.56454 | 7937 ft | 304 kts | 43° |
| 2026-04-30 04:18 | 40.65076 | -74.54567 | 7934 ft | 303 kts | 43° |
| 2026-04-30 04:18 | 40.66634 | -74.52663 | 7933 ft | 303 kts | 43° |
| 2026-04-30 04:19 | 40.68196 | -74.50763 | 7932 ft | 304 kts | 43° |
| 2026-04-30 04:19 | 40.69747 | -74.48890 | 7934 ft | 304 kts | 43° |
| 2026-04-30 04:19 | 40.71305 | -74.47008 | 8052 ft | 305 kts | 43° |
| 2026-04-30 04:19 | 40.72865 | -74.45121 | 7945 ft | 303 kts | 42° |
| 2026-04-30 04:20 | 40.74401 | -74.43262 | 7612 ft | 300 kts | 43° |
| 2026-04-30 04:20 | 40.75874 | -74.41305 | 7220 ft | 299 kts | 47° |
| 2026-04-30 04:20 | 40.77289 | -74.39263 | 6874 ft | 296 kts | 49° |
| 2026-04-30 04:20 | 40.78667 | -74.37248 | 6534 ft | 294 kts | 49° |
| 2026-04-30 04:21 | 40.80033 | -74.35266 | 6178 ft | 292 kts | 48° |
| 2026-04-30 04:21 | 40.81408 | -74.33289 | 5805 ft | 290 kts | 49° |
| 2026-04-30 04:21 | 40.82777 | -74.31331 | 5444 ft | 288 kts | 49° |
| 2026-04-30 04:21 | 40.84136 | -74.29388 | 5092 ft | 286 kts | 49° |
| 2026-04-30 04:22 | 40.85490 | -74.27455 | 4745 ft | 284 kts | 50° |
| 2026-04-30 04:22 | 40.86814 | -74.25567 | 4400 ft | 282 kts | 50° |
| 2026-04-30 04:22 | 40.88142 | -74.23669 | 4069 ft | 279 kts | 50° |
| 2026-04-30 04:22 | 40.89457 | -74.21790 | 3982 ft | 277 kts | 50° |
| 2026-04-30 04:23 | 40.90747 | -74.19945 | 3969 ft | 264 kts | 50° |
| 2026-04-30 04:23 | 40.91850 | -74.18099 | 3947 ft | 244 kts | 69° |
| 2026-04-30 04:23 | 40.92188 | -74.16032 | 3798 ft | 225 kts | 99° |
| 2026-04-30 04:23 | 40.91798 | -74.14132 | 3632 ft | 207 kts | 124° |
| 2026-04-30 04:24 | 40.90915 | -74.12708 | 3460 ft | 193 kts | 146° |
| 2026-04-30 04:24 | 40.89813 | -74.11809 | 3373 ft | 178 kts | 155° |
| 2026-04-30 04:24 | 40.88781 | -74.11060 | 3435 ft | 161 kts | 155° |
| 2026-04-30 04:24 | 40.87804 | -74.10352 | 3400 ft | 159 kts | 155° |
| 2026-04-30 04:25 | 40.86834 | -74.09644 | 3356 ft | 159 kts | 155° |
| 2026-04-30 04:25 | 40.85856 | -74.08921 | 3323 ft | 159 kts | 154° |
| 2026-04-30 04:25 | 40.84889 | -74.08203 | 3286 ft | 158 kts | 154° |
| 2026-04-30 04:25 | 40.83885 | -74.07651 | 3209 ft | 155 kts | 177° |
| 2026-04-30 04:26 | 40.82849 | -74.07900 | 3009 ft | 152 kts | 197° |
| 2026-04-30 04:26 | 40.81882 | -74.08442 | 2738 ft | 146 kts | 202° |
| 2026-04-30 04:26 | 40.80984 | -74.09019 | 2442 ft | 136 kts | 202° |
| 2026-04-30 04:26 | 40.80162 | -74.09553 | 2255 ft | 131 kts | 202° |
| 2026-04-30 04:27 | 40.79336 | -74.10081 | 2092 ft | 132 kts | 202° |
| 2026-04-30 04:27 | 40.78502 | -74.10613 | 1919 ft | 132 kts | 202° |
| 2026-04-30 04:27 | 40.77672 | -74.11158 | 1729 ft | 133 kts | 203° |
| 2026-04-30 04:27 | 40.76831 | -74.11691 | 1531 ft | 134 kts | 201° |
| 2026-04-30 04:28 | 40.75972 | -74.12203 | 1343 ft | 135 kts | 202° |
| 2026-04-30 04:28 | 40.75113 | -74.12734 | 1161 ft | 135 kts | 203° |
| 2026-04-30 04:28 | 40.74263 | -74.13297 | 1008 ft | 136 kts | 204° |
| 2026-04-30 04:28 | 40.73414 | -74.13841 | 810 ft | 136 kts | 203° |
| 2026-04-30 04:29 | 40.72555 | -74.14373 | 610 ft | 136 kts | 203° |
| 2026-04-30 04:29 | 40.71697 | -74.14919 | 446 ft | 137 kts | 204° |
| 2026-04-30 04:29 | 40.70831 | -74.15473 | 262 ft | 138 kts | 204° |
| 2026-04-30 04:29 | 40.69968 | -74.16028 | 91 ft | 139 kts | 205° |
| 2026-04-30 04:30 | 40.69105 | -74.16567 | 14 ft | 125 kts | 207° |
| 2026-04-30 04:30 | 40.68576 | -74.16904 | 14 ft | 51 kts | 206° |
| 2026-04-30 04:30 | 40.68324 | -74.17103 | 14 ft | 29 kts | 225° |
| 2026-04-30 04:30 | 40.68222 | -74.17266 | 14 ft | 13 kts | 236° |
| 2026-04-30 04:31 | 40.68215 | -74.17279 | 14 ft | 0 kts | 236° |
| 2026-04-30 04:32 | 40.68198 | -74.17312 | 14 ft | 9 kts | 236° |
| 2026-04-30 04:32 | 40.68147 | -74.17396 | 14 ft | 12 kts | 218° |
| 2026-04-30 04:33 | 40.68067 | -74.17454 | 14 ft | 13 kts | 205° |
| 2026-04-30 04:33 | 40.67986 | -74.17504 | 14 ft | 11 kts | 210° |
| 2026-04-30 04:33 | 40.67973 | -74.17596 | 15 ft | 11 kts | 296° |
| 2026-04-30 04:33 | 40.68011 | -74.17695 | 15 ft | 12 kts | 296° |
| 2026-04-30 04:34 | 40.68050 | -74.17803 | 14 ft | 13 kts | 295° |
| 2026-04-30 04:34 | 40.68100 | -74.17909 | 14 ft | 13 kts | 318° |
| 2026-04-30 04:34 | 40.68168 | -74.17999 | 14 ft | 14 kts | 294° |
| 2026-04-30 04:34 | 40.68180 | -74.18130 | 14 ft | 14 kts | 273° |
| 2026-04-30 04:35 | 40.68211 | -74.18240 | 14 ft | 10 kts | 331° |
| 2026-04-30 04:35 | 40.68231 | -74.18247 | 14 ft | 0 kts | 347° |
| 2026-04-30 04:35 | 40.68245 | -74.18251 | 14 ft | 4 kts | 347° |
| 2026-04-30 04:35 | 40.68278 | -74.18263 | 14 ft | 5 kts | 345° |
| 2026-04-30 04:36 | 40.68298 | -74.18269 | 14 ft | 0 kts | 345° |